Terminal Aerodrome Forecast
Issued by NWS

Home | Current Version | Previous Version | Graphics & Text | Print | Product List | Glossary On
Versions: 1 2 3 4 5 6 7 8 9 10 11 12 13 14 15 16 17 18 19 20 21 22 23
000
FTUS42 KMHX 170558
TAFPGV
TAF
KPGV 170558Z 1706/1806 05009KT P6SM SCT025 OVC050
     FM171700 06008KT P6SM OVC025
     FM171900 06005KT 5SM -RADZ OVC015
     FM172100 VRB04KT 5SM -RADZ OVC008
     FM180000 00000KT 3SM -DZ BKN005
     FM180300 34003KT 5SM BR OVC003
      AMD LTD TO CLD VIS AND WIND=

USA.gov is the U.S. government's official web portal to all federal, state and local government web resources and services.